createdAt,value
2023-05-23T00:01:17.218Z,97855.37311612307
2023-05-23T00:04:19.123Z,97850.90599479992
2023-05-23T00:07:16.931Z,97850.14148032268
2023-05-23T00:11:16.494Z,97854.67214279782
2023-05-23T00:14:17.180Z,97852.86081962092
2023-05-23T00:17:17.668Z,97849.94848958249
2023-05-23T00:21:16.126Z,97853.72253538069
2023-05-23T00:24:19.161Z,97849.22423567013
2023-05-23T00:27:16.171Z,97846.86320319626
2023-05-23T00:31:16.522Z,97845.82236297976
2023-05-23T00:34:18.117Z,97843.0442939059
2023-05-23T00:37:16.925Z,97836.8876040665
2023-05-23T00:41:16.475Z,97834.68890555871
2023-05-23T00:44:16.474Z,97831.2677719351
2023-05-23T00:47:17.631Z,97825.13879826534
2023-05-23T00:51:16.566Z,97821.05602123885
2023-05-23T00:54:23.046Z,97814.37755487482
2023-05-23T00:57:17.151Z,97810.99592423593
2023-05-23T01:01:16.494Z,97817.18606528759
2023-05-23T01:04:17.085Z,97816.17476026741
2023-05-23T01:07:16.527Z,97813.19319923138
2023-05-23T01:11:27.368Z,97811.16959535076
2023-05-23T01:14:21.342Z,97808.37228671306
2023-05-23T01:17:24.749Z,97811.09999573197
2023-05-23T01:21:18.729Z,97806.17795543699
2023-05-23T01:24:35.140Z,97804.35610531016
2023-05-23T01:27:30.516Z,97810.72071319274
2023-05-23T01:31:17.584Z,97808.0176971725
2023-05-23T01:34:20.294Z,97806.63807249641
2023-05-23T01:37:19.942Z,97809.40073664147
2023-05-23T01:41:16.616Z,97807.40908743638
2023-05-23T01:44:18.162Z,97808.16519127594
2023-05-23T01:47:17.580Z,97808.62821819485
2023-05-23T01:51:16.802Z,97804.92540146587
2023-05-23T01:54:17.810Z,97798.63007955646
2023-05-23T01:57:17.800Z,97788.77891384542
2023-05-23T02:01:16.995Z,97789.36555249848
2023-05-23T02:04:16.585Z,97790.7682722831
2023-05-23T02:07:16.453Z,97787.69832452513
2023-05-23T02:11:16.178Z,97788.72715801484
2023-05-23T02:14:16.325Z,97790.39367550466
2023-05-23T02:17:17.222Z,97788.12227775132
2023-05-23T02:21:16.076Z,97789.7776607087
2023-05-23T02:24:16.853Z,97791.94540930938
2023-05-23T02:27:16.790Z,97783.95425011707
2023-05-23T02:31:17.534Z,97788.81937115738
2023-05-23T02:34:16.839Z,97794.44140487729
2023-05-23T02:37:16.701Z,97793.44353033567
2023-05-23T02:41:16.571Z,97794.9626140072
2023-05-23T02:44:19.660Z,97798.85117853274
2023-05-23T02:47:16.752Z,97798.0005570251
2023-05-23T02:51:16.354Z,97800.93306976567
2023-05-23T02:54:17.054Z,97805.86790009924
2023-05-23T02:57:16.318Z,97808.5431397417
2023-05-23T03:01:16.510Z,97812.30924496365
2023-05-23T03:04:16.895Z,97818.3784449831
2023-05-23T03:07:27.750Z,97814.91748456233
2023-05-23T03:11:16.489Z,97809.97009885072
2023-05-23T03:14:16.852Z,97811.26351243371
2023-05-23T03:17:16.632Z,97813.998344978
2023-05-23T03:21:16.390Z,97813.7189657732
2023-05-23T03:24:16.951Z,97809.98045820405
2023-05-23T03:27:16.693Z,97813.26412133627
2023-05-23T03:31:16.488Z,97816.39881844932
2023-05-23T03:34:16.931Z,97812.22773360381
2023-05-23T03:37:16.797Z,97811.14728585843
2023-05-23T03:41:16.012Z,97804.63734364716
2023-05-23T03:44:16.465Z,97808.85828918626
2023-05-23T03:47:16.415Z,97812.35082950315
2023-05-23T03:51:16.597Z,97813.33375205098
2023-05-23T03:54:17.614Z,97813.38304474745
2023-05-23T03:57:16.677Z,97813.56489015534
2023-05-23T04:01:16.180Z,97814.81368756869
2023-05-23T04:04:17.487Z,97818.4528506041
2023-05-23T04:07:16.898Z,97818.10770532023
2023-05-23T04:11:17.081Z,97820.10948184565
2023-05-23T04:14:17.581Z,97827.19983292866
2023-05-23T04:17:16.858Z,97827.71796349797
2023-05-23T04:21:15.858Z,97827.03113798724
2023-05-23T04:24:16.400Z,97832.73862976457
2023-05-23T04:27:16.269Z,97843.11038619102
2023-05-23T04:31:16.179Z,97836.34356010861
2023-05-23T04:34:17.527Z,97836.61473957285
2023-05-23T04:37:17.563Z,97840.98020288674
2023-05-23T04:41:16.637Z,97837.67025056347
2023-05-23T04:44:17.263Z,97843.75714491859
2023-05-23T04:47:16.918Z,97840.18721009437
2023-05-23T04:51:16.841Z,97846.50750386219
2023-05-23T04:54:17.276Z,97849.57376728719
2023-05-23T04:57:17.417Z,97849.36584017723
2023-05-23T05:01:16.354Z,97853.28754524137
2023-05-23T05:04:16.588Z,97859.04209250712
2023-05-23T05:07:17.579Z,97858.2818409337
2023-05-23T05:11:16.757Z,97860.12243217276
2023-05-23T05:14:17.011Z,97855.88895099968
2023-05-23T05:17:17.265Z,97851.4688049309
2023-05-23T05:21:16.278Z,97849.79809115242
2023-05-23T05:24:17.270Z,97851.05911517529
2023-05-23T05:27:16.745Z,97850.02197921144
2023-05-23T05:31:16.338Z,97848.94222701607
2023-05-23T05:34:16.397Z,97850.07484828182
2023-05-23T05:37:16.739Z,97849.67652630318
2023-05-23T05:41:15.920Z,97848.78052834414
2023-05-23T05:44:16.231Z,97852.54118687783
2023-05-23T05:47:16.263Z,97850.49793082994
2023-05-23T05:51:16.773Z,97850.84586953413
2023-05-23T05:54:19.098Z,97852.95871736377
2023-05-23T05:57:16.879Z,97852.82804283257
2023-05-23T06:01:16.160Z,97849.71744336809
2023-05-23T06:04:16.986Z,97847.63392271705
2023-05-23T06:07:16.375Z,97851.61340322501
2023-05-23T06:11:16.623Z,97851.81580494983
2023-05-23T06:14:17.027Z,97855.22016397431
2023-05-23T06:17:17.050Z,97854.4995577007
2023-05-23T06:21:16.054Z,97858.35893661508
2023-05-23T06:24:16.403Z,97851.80081552206
2023-05-23T06:27:16.358Z,97852.8104700223
2023-05-23T06:31:16.874Z,97855.82906016907
2023-05-23T06:34:17.172Z,97849.32913476606
2023-05-23T06:37:18.116Z,97855.83385788689
2023-05-23T06:41:15.831Z,97855.96448408221
2023-05-23T06:44:16.268Z,97859.5494842595
2023-05-23T06:47:16.304Z,97858.37934068688
2023-05-23T06:51:15.862Z,97861.52922648686
2023-05-23T06:54:16.347Z,97854.36257475741
2023-05-23T06:57:16.491Z,97853.45883052112
2023-05-23T07:01:16.467Z,97851.2942434747
2023-05-23T07:04:16.532Z,97850.80509385916
2023-05-23T07:07:16.827Z,97850.70560484419
2023-05-23T07:11:16.856Z,97851.93450288422
2023-05-23T07:14:16.818Z,97851.20556326717
2023-05-23T07:17:17.126Z,97852.17044281807
2023-05-23T07:21:16.309Z,97854.82073916384
2023-05-23T07:24:16.607Z,97857.4876029441
2023-05-23T07:27:16.693Z,97857.95115342902
2023-05-23T07:31:16.260Z,97859.46404989588
2023-05-23T07:34:16.375Z,97862.38945300688
2023-05-23T07:37:16.489Z,97861.5094411051
2023-05-23T07:41:16.182Z,97858.64930297997
2023-05-23T07:44:18.666Z,97859.65494197303
2023-05-23T07:47:16.622Z,97863.39242321196
2023-05-23T07:51:21.552Z,97865.070212939
2023-05-23T07:54:17.290Z,97859.51301394148
2023-05-23T07:57:17.163Z,97861.74350528156
2023-05-23T08:01:16.231Z,97859.89835815535
2023-05-23T08:04:17.105Z,97859.47084144378
2023-05-23T08:07:19.223Z,97863.71731362086
2023-05-23T08:11:16.254Z,97858.29733232752
2023-05-23T08:14:16.336Z,97853.93352004346
2023-05-23T08:17:16.499Z,97852.75554377947
2023-05-23T08:21:16.764Z,97861.4813257676
2023-05-23T08:24:17.112Z,97857.35737530731
2023-05-23T08:27:17.163Z,97857.52406634836
2023-05-23T08:31:16.589Z,97861.95469567375
2023-05-23T08:34:16.815Z,97856.53342300917
2023-05-23T08:37:16.766Z,97856.19209135065
2023-05-23T08:41:20.294Z,97865.38397681348
2023-05-23T08:44:17.454Z,97864.1411886977
2023-05-23T08:47:19.458Z,97868.01234146181
2023-05-23T08:51:18.171Z,97868.1275826771
2023-05-23T08:54:17.658Z,97867.85507601603
2023-05-23T08:57:17.212Z,97868.22906043261
2023-05-23T09:01:21.333Z,97868.00966658823
2023-05-23T09:04:17.127Z,97868.94126654489
2023-05-23T09:07:18.751Z,97865.72710411351
2023-05-23T09:11:16.555Z,97867.59398452273
2023-05-23T09:14:18.300Z,97866.82365192103
2023-05-23T09:17:18.508Z,97859.88949984599
2023-05-23T09:21:16.300Z,97860.20823138877
2023-05-23T09:24:16.685Z,97853.47679790526
2023-05-23T09:27:16.787Z,97851.20251727251
2023-05-23T09:31:16.829Z,97849.18483760518
2023-05-23T09:34:17.132Z,97848.46766733247
2023-05-23T09:37:19.676Z,97850.9965958711
2023-05-23T09:41:19.859Z,97850.69338637954
2023-05-23T09:44:22.528Z,97847.21517010093
2023-05-23T09:47:17.233Z,97844.91028657366
2023-05-23T09:51:18.797Z,97845.31978854956
2023-05-23T09:54:16.496Z,97846.49865328654
2023-05-23T09:57:18.520Z,97848.5893615533
2023-05-23T10:01:18.384Z,97842.57093698978
2023-05-23T10:04:21.322Z,97847.5887070257
2023-05-23T10:07:22.056Z,97850.26687802053
2023-05-23T10:21:23.433Z,97838.02518805074
2023-05-23T10:24:18.048Z,97839.45276326733
2023-05-23T10:27:17.248Z,97835.24034157438
2023-05-23T10:31:17.005Z,97838.44147886544
2023-05-23T10:34:26.730Z,97834.93966921601
2023-05-23T10:37:23.622Z,97832.65446582976
2023-05-23T10:41:24.685Z,97832.22515338076
2023-05-23T10:44:22.938Z,97825.21386490713
2023-05-23T10:47:26.431Z,97828.28567394026
2023-05-23T10:51:17.553Z,97822.75144574796
2023-05-23T10:54:18.413Z,97821.36587539494
2023-05-23T10:57:19.379Z,97825.52585498315
2023-05-23T11:01:17.122Z,97822.1846797035
2023-05-23T11:04:25.067Z,97821.72835108326
2023-05-23T11:07:32.933Z,97819.16399962171
2023-05-23T11:11:16.963Z,97815.44610610038
2023-05-23T11:14:17.653Z,97812.65977709422
2023-05-23T11:17:28.802Z,97801.34292417129
2023-05-23T11:31:16.841Z,97796.62237381045
2023-05-23T11:34:17.963Z,97805.33774142958
2023-05-23T11:37:19.535Z,97801.13569617736
2023-05-23T11:41:17.423Z,97801.71709552464
2023-05-23T11:44:17.049Z,97795.66588716714
2023-05-23T11:47:17.671Z,97795.44975365906
2023-05-23T11:51:17.169Z,97793.47179000839
2023-05-23T11:54:16.704Z,97792.23460610263
2023-05-23T11:57:16.926Z,97780.07743932556
2023-05-23T12:01:16.941Z,97787.60875061201
2023-05-23T12:04:16.885Z,97786.67822933769
2023-05-23T12:07:19.187Z,97782.23006194153
2023-05-23T12:11:16.325Z,97785.69899698549
2023-05-23T12:14:18.352Z,97783.43646795137
2023-05-23T12:17:17.289Z,97786.93661385741
2023-05-23T12:21:16.693Z,97784.0369436917
2023-05-23T12:24:20.142Z,97785.28872690235
2023-05-23T12:27:18.273Z,97783.42193267118
2023-05-23T12:31:20.446Z,97775.57890592769
2023-05-23T12:34:19.888Z,97774.97529479236
2023-05-23T12:37:19.714Z,97777.37474698057
2023-05-23T12:41:20.012Z,97784.28280610061
2023-05-23T12:44:17.357Z,97789.64813201565
2023-05-23T12:47:17.143Z,97788.3853620727
2023-05-23T12:51:17.896Z,97787.42191247061
2023-05-23T12:54:17.876Z,97782.90555836307
2023-05-23T12:57:17.066Z,97773.90454083419
2023-05-23T13:01:16.493Z,97764.95803498117
2023-05-23T13:04:16.957Z,97753.96624175295
2023-05-23T13:07:16.712Z,97746.88208834047
2023-05-23T13:11:17.344Z,97746.08866050272
2023-05-23T13:14:16.734Z,97747.88765340575
2023-05-23T13:17:17.204Z,97745.38083998261
2023-05-23T13:21:17.017Z,97743.6545768005
2023-05-23T13:24:20.130Z,97746.50357851842
2023-05-23T13:27:18.661Z,97756.26637978246
2023-05-23T13:31:16.386Z,97765.79264799689
2023-05-23T13:34:16.737Z,97774.1590991647
2023-05-23T13:37:18.380Z,97781.53953622392
2023-05-23T13:41:16.991Z,97788.05136709391
2023-05-23T13:44:16.626Z,97793.53763363718
2023-05-23T13:47:16.754Z,97794.34084251426
2023-05-23T13:51:16.818Z,97791.3355539549
2023-05-23T13:54:17.066Z,97792.18186586798
2023-05-23T13:57:17.208Z,97787.98743256152
2023-05-23T14:01:16.091Z,97790.41489873707
2023-05-23T14:04:16.325Z,97787.24451968596
2023-05-23T14:07:17.107Z,97793.011643772
2023-05-23T14:11:16.863Z,97788.77694979071
2023-05-23T14:14:17.622Z,97802.52254537433
2023-05-23T14:17:17.587Z,97808.76112751705
2023-05-23T14:21:16.572Z,97825.39349306418
2023-05-23T14:24:16.949Z,97861.45632772059
2023-05-23T14:27:17.028Z,97878.96139148716
2023-05-23T14:31:16.969Z,97900.56633833764
2023-05-23T14:34:17.312Z,97899.32536764343
2023-05-23T14:37:17.400Z,97918.63759311504
2023-05-23T14:41:16.240Z,97920.52443681362
2023-05-23T14:44:16.561Z,97919.17660554747
2023-05-23T14:47:16.359Z,97917.91508626552
2023-05-23T15:01:17.017Z,97895.95772889389
2023-05-23T15:04:17.149Z,97876.60731504404
2023-05-23T15:07:18.634Z,97867.66899453138
2023-05-23T15:11:16.981Z,97851.52877372933
2023-05-23T15:14:16.969Z,97852.00592456524
2023-05-23T15:17:20.540Z,97860.71662790391
2023-05-23T15:21:16.689Z,97868.6690369179
2023-05-23T15:24:16.943Z,97870.46033573724
2023-05-23T15:27:20.986Z,97876.31037683372
2023-05-23T15:31:16.175Z,97873.95675581561
2023-05-23T15:34:16.383Z,97878.20483773202
2023-05-23T15:37:16.940Z,97880.85578135827
2023-05-23T15:41:16.397Z,97887.84648733457
2023-05-23T15:44:19.984Z,97892.18431548378
2023-05-23T15:47:16.594Z,97898.0445825408
2023-05-23T15:51:16.763Z,97902.80737513673
2023-05-23T15:54:16.312Z,97904.18875453672
2023-05-23T15:57:16.424Z,97904.66924752979
2023-05-23T16:01:16.563Z,97898.98482076412
2023-05-23T16:04:16.577Z,97890.13851705223
2023-05-23T16:07:18.479Z,97883.45277920873
2023-05-23T16:11:17.153Z,97887.19357082575
2023-05-23T16:14:17.513Z,97881.87327308378
2023-05-23T16:17:17.378Z,97878.21553990123
2023-05-23T16:21:20.858Z,97871.68703918201
2023-05-23T16:24:18.587Z,97869.16244389165
2023-05-23T16:27:16.719Z,97871.94521071648
2023-05-23T16:31:17.118Z,97870.15766875855
2023-05-23T16:34:16.455Z,97867.26184662055
2023-05-23T16:37:16.675Z,97872.94588385613
2023-05-23T16:41:18.060Z,97877.01084479295
2023-05-23T16:44:17.171Z,97877.70387543843
2023-05-23T16:47:17.393Z,97874.17885059223
2023-05-23T16:51:16.950Z,97873.41638061342
2023-05-23T16:54:17.931Z,97872.48367826933
2023-05-23T16:57:18.540Z,97872.9420341526
2023-05-23T17:01:17.576Z,97869.38999109333
2023-05-23T17:04:19.611Z,97868.07450103793
2023-05-23T17:07:17.484Z,97866.76951120656
2023-05-23T17:11:17.260Z,97875.26137908864
2023-05-23T17:14:16.675Z,97876.72724911483
2023-05-23T17:17:16.581Z,97879.19559725471
2023-05-23T17:21:16.084Z,97886.7984976625
2023-05-23T17:24:16.859Z,97895.14500491465
2023-05-23T17:27:16.531Z,97894.0278783527
2023-05-23T17:31:17.311Z,97893.93851832752
2023-05-23T17:34:17.862Z,97891.42490332376
2023-05-23T17:37:17.989Z,97889.54626029932
2023-05-23T17:41:16.312Z,97885.29455354011
2023-05-23T17:44:18.418Z,97879.67431562523
2023-05-23T17:47:18.547Z,97872.96504643245
2023-05-23T17:51:16.305Z,97868.27433750711
2023-05-23T17:54:16.610Z,97868.92916058558
2023-05-23T17:57:16.445Z,97867.51742948814
2023-05-23T18:01:16.474Z,97863.94114160216
2023-05-23T18:04:17.805Z,97864.55016897994
2023-05-23T18:07:19.241Z,97860.88427889063
2023-05-23T18:11:16.800Z,97857.85574437535
2023-05-23T18:14:18.942Z,97858.68748095723
2023-05-23T18:17:18.525Z,97863.4889702414
2023-05-23T18:21:18.317Z,97865.70989313643
2023-05-23T18:24:18.510Z,97863.29781231523
2023-05-23T18:27:17.501Z,97861.01523547916
2023-05-23T18:31:16.694Z,97859.47772144128
2023-05-23T18:34:17.048Z,97858.74599715232
2023-05-23T18:37:17.306Z,97851.26620681935
2023-05-23T18:41:17.729Z,97850.80625829825
2023-05-23T18:44:20.312Z,97854.05303542854
2023-05-23T18:47:16.719Z,97854.33382155468
2023-05-23T18:51:17.501Z,97859.93307563859
2023-05-23T18:54:17.232Z,97863.93360188874
2023-05-23T18:57:17.699Z,97862.22538268456
2023-05-23T19:01:17.749Z,97870.36917136176
2023-05-23T19:04:18.377Z,97880.71942500731
2023-05-23T19:07:17.012Z,97885.3999427487
2023-05-23T19:11:16.781Z,97892.08362440299
2023-05-23T19:14:16.958Z,97897.33168576431
2023-05-23T19:17:17.137Z,97892.8441124988
2023-05-23T19:21:17.114Z,97902.60026033732
2023-05-23T19:24:17.384Z,97904.56400577955
2023-05-23T19:27:20.244Z,97907.96795037665
2023-05-23T19:31:16.570Z,97914.99553760444
2023-05-23T19:34:16.932Z,97925.38605145147
2023-05-23T19:37:17.820Z,97925.49275316103
2023-05-23T19:41:17.022Z,97929.63855163314
2023-05-23T19:44:16.482Z,97938.71620540347
2023-05-23T19:47:16.458Z,97941.74764140777
2023-05-23T19:51:16.590Z,97933.90522214647
2023-05-23T19:54:16.640Z,97937.53208925652
2023-05-23T19:57:16.518Z,97936.40980206145
2023-05-23T20:01:16.794Z,97949.26841018611
2023-05-23T20:04:16.890Z,97953.28539190051
2023-05-23T20:07:17.055Z,97952.6532459829
2023-05-23T20:11:16.909Z,97956.91076281713
2023-05-23T20:14:17.361Z,97956.09650516426
2023-05-23T20:17:17.253Z,97957.16375513408
2023-05-23T20:21:16.992Z,97952.72159077608
2023-05-23T20:24:17.093Z,97954.73690248906
2023-05-23T20:27:17.181Z,97952.15955124465
2023-05-23T20:31:17.033Z,97957.28639594374
2023-05-23T20:34:17.259Z,97960.87390006598
2023-05-23T20:37:17.088Z,97963.40426505863
2023-05-23T20:41:16.705Z,97957.93772777819
2023-05-23T20:44:17.494Z,97955.34008639686
2023-05-23T20:47:18.098Z,97957.01102367691
2023-05-23T20:51:17.370Z,97961.6932323634
2023-05-23T20:54:17.115Z,97967.77347862892
2023-05-23T20:57:17.181Z,97966.88077923036
2023-05-23T21:01:16.262Z,97967.79132482129
2023-05-23T21:04:18.725Z,97961.37621321196
2023-05-23T21:07:16.432Z,97961.11302363368
2023-05-23T21:11:16.881Z,97954.24247750762
2023-05-23T21:14:17.216Z,97955.92087513319
2023-05-23T21:17:19.792Z,97950.37585911038
2023-05-23T21:21:16.338Z,97952.19609963614
2023-05-23T21:24:16.664Z,97947.10935104178
2023-05-23T21:27:16.860Z,97958.29803141169
2023-05-23T21:31:19.817Z,97958.36034789529
2023-05-23T21:34:23.934Z,97961.4384965059
2023-05-23T21:37:17.275Z,97956.63348499192
2023-05-23T21:41:16.968Z,97958.01803182458
2023-05-23T21:44:17.896Z,97960.38468606382
2023-05-23T21:47:16.970Z,97960.63063438528
2023-05-23T21:51:16.956Z,97962.53542855394
2023-05-23T21:54:17.088Z,97960.24168756901
2023-05-23T21:57:17.103Z,97953.93203390611
2023-05-23T22:01:18.959Z,97951.60129918945
2023-05-23T22:04:20.184Z,97950.5207639253
2023-05-23T22:07:17.215Z,97955.63347274375
2023-05-23T22:11:16.345Z,97953.26725624356
2023-05-23T22:14:17.010Z,97948.23780977867
2023-05-23T22:17:18.114Z,97950.29600057389
2023-05-23T22:21:16.350Z,97944.7940297548
2023-05-23T22:24:16.898Z,97943.88559619192
2023-05-23T22:27:16.773Z,97945.61066897756
2023-05-23T22:31:17.139Z,97949.32339157241
2023-05-23T22:34:17.238Z,97944.68287963017
2023-05-23T22:37:17.369Z,97943.84835852851
2023-05-23T22:44:17.101Z,97934.2854493988
2023-05-23T22:47:18.490Z,97939.50229055539
2023-05-23T22:51:16.807Z,97934.2458569697
2023-05-23T22:54:16.936Z,97934.82036227401
2023-05-23T22:57:16.932Z,97929.6933795621
2023-05-23T23:01:16.188Z,97931.62223304086
2023-05-23T23:04:16.483Z,97922.11276420222
2023-05-23T23:31:17.622Z,97922.5568755107
2023-05-23T23:34:17.169Z,97924.17950452364
2023-05-23T23:37:17.410Z,97924.01217947208
2023-05-23T23:41:16.496Z,97924.3517850894
2023-05-23T23:44:16.615Z,97930.46773690669
2023-05-23T23:47:16.560Z,97923.48047640023
2023-05-23T23:51:16.906Z,97925.7994452698
2023-05-23T23:54:16.800Z,97926.67529049431
2023-05-23T23:57:16.894Z,97923.94134429979
